sensor_id;sensor_type;location;lat;lon;timestamp;temperature;humidity
37460;DHT22;23318;50.966;5.284;2023-06-10T00:01:24;22.20;99.90
37460;DHT22;23318;50.966;5.284;2023-06-10T00:03:51;22.10;99.90
37460;DHT22;23318;50.966;5.284;2023-06-10T00:06:17;22.10;99.90
37460;DHT22;23318;50.966;5.284;2023-06-10T00:08:43;22.10;99.90
37460;DHT22;23318;50.966;5.284;2023-06-10T00:11:09;22.00;99.90
37460;DHT22;23318;50.966;5.284;2023-06-10T00:13:35;22.00;99.90
37460;DHT22;23318;50.966;5.284;2023-06-10T00:16:02;22.00;99.90
37460;DHT22;23318;50.966;5.284;2023-06-10T00:18:29;21.90;99.90
37460;DHT22;23318;50.966;5.284;2023-06-10T00:20:57;21.80;99.90
37460;DHT22;23318;50.966;5.284;2023-06-10T00:23:28;21.70;99.90
37460;DHT22;23318;50.966;5.284;2023-06-10T00:25:57;21.70;99.90
37460;DHT22;23318;50.966;5.284;2023-06-10T00:28:23;21.60;99.90
37460;DHT22;23318;50.966;5.284;2023-06-10T00:30:48;21.50;99.90
37460;DHT22;23318;50.966;5.284;2023-06-10T00:33:14;21.40;99.90
37460;DHT22;23318;50.966;5.284;2023-06-10T00:35:40;21.30;99.90
37460;DHT22;23318;50.966;5.284;2023-06-10T00:38:06;21.20;99.90
37460;DHT22;23318;50.966;5.284;2023-06-10T00:40:33;21.10;99.90
37460;DHT22;23318;50.966;5.284;2023-06-10T00:43:04;21.00;99.90
37460;DHT22;23318;50.966;5.284;2023-06-10T00:45:29;21.00;99.90
37460;DHT22;23318;50.966;5.284;2023-06-10T00:47:55;21.10;99.90
37460;DHT22;23318;50.966;5.284;2023-06-10T00:50:21;21.10;99.90
37460;DHT22;23318;50.966;5.284;2023-06-10T00:52:47;21.20;99.90
37460;DHT22;23318;50.966;5.284;2023-06-10T00:55:16;21.10;99.90
37460;DHT22;23318;50.966;5.284;2023-06-10T00:57:42;21.10;99.90
37460;DHT22;23318;50.966;5.284;2023-06-10T01:00:10;21.00;99.90
37460;DHT22;23318;50.966;5.284;2023-06-10T01:02:36;21.10;99.90
37460;DHT22;23318;50.966;5.284;2023-06-10T01:05:02;21.10;99.90
37460;DHT22;23318;50.966;5.284;2023-06-10T01:07:42;21.10;99.90
37460;DHT22;23318;50.966;5.284;2023-06-10T01:10:19;21.00;99.90
37460;DHT22;23318;50.966;5.284;2023-06-10T01:12:51;20.90;99.90
37460;DHT22;23318;50.966;5.284;2023-06-10T01:15:19;20.90;99.90
37460;DHT22;23318;50.966;5.284;2023-06-10T01:18:10;20.80;99.90
37460;DHT22;23318;50.966;5.284;2023-06-10T01:20:37;20.80;99.90
37460;DHT22;23318;50.966;5.284;2023-06-10T01:23:06;20.70;99.90
37460;DHT22;23318;50.966;5.284;2023-06-10T01:25:33;20.70;99.90
37460;DHT22;23318;50.966;5.284;2023-06-10T01:28:07;20.70;99.90
37460;DHT22;23318;50.966;5.284;2023-06-10T01:31:23;20.70;99.90
37460;DHT22;23318;50.966;5.284;2023-06-10T01:33:31;20.70;99.90
37460;DHT22;23318;50.966;5.284;2023-06-10T01:35:59;20.70;99.90
37460;DHT22;23318;50.966;5.284;2023-06-10T01:38:27;20.50;99.90
37460;DHT22;23318;50.966;5.284;2023-06-10T01:40:55;20.50;99.90
37460;DHT22;23318;50.966;5.284;2023-06-10T01:43:21;20.40;99.90
37460;DHT22;23318;50.966;5.284;2023-06-10T01:45:47;20.40;99.90
37460;DHT22;23318;50.966;5.284;2023-06-10T01:48:13;20.40;99.90
37460;DHT22;23318;50.966;5.284;2023-06-10T01:50:38;20.30;99.90
37460;DHT22;23318;50.966;5.284;2023-06-10T01:53:04;20.30;99.90
37460;DHT22;23318;50.966;5.284;2023-06-10T01:55:33;20.40;99.90
37460;DHT22;23318;50.966;5.284;2023-06-10T01:57:58;20.50;99.90
37460;DHT22;23318;50.966;5.284;2023-06-10T02:00:24;20.50;99.90
37460;DHT22;23318;50.966;5.284;2023-06-10T02:02:50;20.50;99.90
37460;DHT22;23318;50.966;5.284;2023-06-10T02:05:16;20.50;99.90
37460;DHT22;23318;50.966;5.284;2023-06-10T02:07:41;20.50;99.90
37460;DHT22;23318;50.966;5.284;2023-06-10T02:10:07;20.50;99.90
37460;DHT22;23318;50.966;5.284;2023-06-10T02:12:33;20.40;99.90
37460;DHT22;23318;50.966;5.284;2023-06-10T02:14:59;20.40;99.90
37460;DHT22;23318;50.966;5.284;2023-06-10T02:17:25;20.40;99.90
37460;DHT22;23318;50.966;5.284;2023-06-10T02:19:51;20.40;99.90
37460;DHT22;23318;50.966;5.284;2023-06-10T02:22:20;20.30;99.90
37460;DHT22;23318;50.966;5.284;2023-06-10T02:24:46;20.30;99.90
37460;DHT22;23318;50.966;5.284;2023-06-10T02:27:12;20.20;99.90
37460;DHT22;23318;50.966;5.284;2023-06-10T02:29:38;20.10;99.90
37460;DHT22;23318;50.966;5.284;2023-06-10T02:32:04;20.10;99.90
37460;DHT22;23318;50.966;5.284;2023-06-10T02:34:30;20.20;99.90
37460;DHT22;23318;50.966;5.284;2023-06-10T02:36:56;20.30;99.90
37460;DHT22;23318;50.966;5.284;2023-06-10T02:39:22;20.20;99.90
37460;DHT22;23318;50.966;5.284;2023-06-10T02:41:48;20.20;99.90
37460;DHT22;23318;50.966;5.284;2023-06-10T02:44:13;20.10;99.90
37460;DHT22;23318;50.966;5.284;2023-06-10T02:46:39;20.10;99.90
37460;DHT22;23318;50.966;5.284;2023-06-10T02:49:05;20.10;99.90
37460;DHT22;23318;50.966;5.284;2023-06-10T02:51:30;20.10;99.90
37460;DHT22;23318;50.966;5.284;2023-06-10T02:53:56;20.20;99.90
37460;DHT22;23318;50.966;5.284;2023-06-10T02:56:21;20.20;99.90
37460;DHT22;23318;50.966;5.284;2023-06-10T02:58:47;20.10;99.90
37460;DHT22;23318;50.966;5.284;2023-06-10T03:01:15;20.00;99.90
37460;DHT22;23318;50.966;5.284;2023-06-10T03:03:40;19.90;99.90
37460;DHT22;23318;50.966;5.284;2023-06-10T03:06:12;19.90;99.90
37460;DHT22;23318;50.966;5.284;2023-06-10T03:08:38;19.90;99.90
37460;DHT22;23318;50.966;5.284;2023-06-10T03:11:04;19.80;99.90
37460;DHT22;23318;50.966;5.284;2023-06-10T03:13:29;19.80;99.90
37460;DHT22;23318;50.966;5.284;2023-06-10T03:15:55;19.70;99.90
37460;DHT22;23318;50.966;5.284;2023-06-10T03:18:21;19.70;99.90
37460;DHT22;23318;50.966;5.284;2023-06-10T03:20:48;19.80;99.90
37460;DHT22;23318;50.966;5.284;2023-06-10T03:23:14;19.80;99.90
37460;DHT22;23318;50.966;5.284;2023-06-10T03:25:41;19.80;99.90
37460;DHT22;23318;50.966;5.284;2023-06-10T03:28:06;19.80;99.90
37460;DHT22;23318;50.966;5.284;2023-06-10T03:30:32;19.80;99.90
37460;DHT22;23318;50.966;5.284;2023-06-10T03:32:58;19.70;99.90
37460;DHT22;23318;50.966;5.284;2023-06-10T03:35:23;19.80;99.90
37460;DHT22;23318;50.966;5.284;2023-06-10T03:37:49;19.80;99.90
37460;DHT22;23318;50.966;5.284;2023-06-10T03:40:15;19.70;99.90
37460;DHT22;23318;50.966;5.284;2023-06-10T03:42:40;19.80;99.90
37460;DHT22;23318;50.966;5.284;2023-06-10T03:45:06;19.80;99.90
37460;DHT22;23318;50.966;5.284;2023-06-10T03:47:36;19.90;99.90
37460;DHT22;23318;50.966;5.284;2023-06-10T03:50:03;19.90;99.90
37460;DHT22;23318;50.966;5.284;2023-06-10T03:52:29;19.80;99.90
37460;DHT22;23318;50.966;5.284;2023-06-10T03:54:55;19.80;99.90
37460;DHT22;23318;50.966;5.284;2023-06-10T03:57:21;19.90;99.90
37460;DHT22;23318;50.966;5.284;2023-06-10T03:59:46;19.90;99.90
37460;DHT22;23318;50.966;5.284;2023-06-10T04:02:12;19.90;99.90
37460;DHT22;23318;50.966;5.284;2023-06-10T04:04:38;19.90;99.90
37460;DHT22;23318;50.966;5.284;2023-06-10T04:07:04;19.80;99.90
37460;DHT22;23318;50.966;5.284;2023-06-10T04:09:31;19.70;99.90
37460;DHT22;23318;50.966;5.284;2023-06-10T04:11:57;19.90;99.90
37460;DHT22;23318;50.966;5.284;2023-06-10T04:14:22;19.90;99.90
37460;DHT22;23318;50.966;5.284;2023-06-10T04:16:49;20.00;99.90
37460;DHT22;23318;50.966;5.284;2023-06-10T04:19:15;20.00;99.90
37460;DHT22;23318;50.966;5.284;2023-06-10T04:21:42;19.90;99.90
37460;DHT22;23318;50.966;5.284;2023-06-10T04:24:07;19.80;99.90
37460;DHT22;23318;50.966;5.284;2023-06-10T04:26:35;20.00;99.90
37460;DHT22;23318;50.966;5.284;2023-06-10T04:29:01;20.00;99.90
37460;DHT22;23318;50.966;5.284;2023-06-10T04:31:26;20.10;99.90
37460;DHT22;23318;50.966;5.284;2023-06-10T04:33:53;20.00;99.90
37460;DHT22;23318;50.966;5.284;2023-06-10T04:36:19;20.10;99.90
37460;DHT22;23318;50.966;5.284;2023-06-10T04:38:44;20.20;99.90
37460;DHT22;23318;50.966;5.284;2023-06-10T04:41:10;20.30;99.90
37460;DHT22;23318;50.966;5.284;2023-06-10T04:43:36;20.40;99.90
37460;DHT22;23318;50.966;5.284;2023-06-10T04:46:02;20.40;99.90
37460;DHT22;23318;50.966;5.284;2023-06-10T04:48:27;20.50;99.90
37460;DHT22;23318;50.966;5.284;2023-06-10T04:50:53;20.50;99.90
37460;DHT22;23318;50.966;5.284;2023-06-10T04:53:19;20.60;99.90
37460;DHT22;23318;50.966;5.284;2023-06-10T04:55:46;20.50;99.90
37460;DHT22;23318;50.966;5.284;2023-06-10T04:58:12;20.80;99.90
37460;DHT22;23318;50.966;5.284;2023-06-10T05:00:37;20.80;99.90
37460;DHT22;23318;50.966;5.284;2023-06-10T05:03:03;20.90;99.90
37460;DHT22;23318;50.966;5.284;2023-06-10T05:05:29;20.90;99.90
37460;DHT22;23318;50.966;5.284;2023-06-10T05:07:54;20.90;99.90
37460;DHT22;23318;50.966;5.284;2023-06-10T05:10:20;21.00;99.90
37460;DHT22;23318;50.966;5.284;2023-06-10T05:12:46;21.10;99.90
37460;DHT22;23318;50.966;5.284;2023-06-10T05:15:11;21.30;99.90
37460;DHT22;23318;50.966;5.284;2023-06-10T05:17:37;21.30;99.90
37460;DHT22;23318;50.966;5.284;2023-06-10T05:20:03;21.20;99.90
37460;DHT22;23318;50.966;5.284;2023-06-10T05:22:29;21.40;99.90
37460;DHT22;23318;50.966;5.284;2023-06-10T05:24:55;21.60;99.90
37460;DHT22;23318;50.966;5.284;2023-06-10T05:27:20;21.50;99.90
37460;DHT22;23318;50.966;5.284;2023-06-10T05:29:47;21.60;99.90
37460;DHT22;23318;50.966;5.284;2023-06-10T05:32:13;21.60;99.90
37460;DHT22;23318;50.966;5.284;2023-06-10T05:34:38;21.80;99.90
37460;DHT22;23318;50.966;5.284;2023-06-10T05:37:04;21.80;99.90
37460;DHT22;23318;50.966;5.284;2023-06-10T05:39:30;21.90;99.90
37460;DHT22;23318;50.966;5.284;2023-06-10T05:41:56;21.90;99.90
37460;DHT22;23318;50.966;5.284;2023-06-10T05:44:24;21.90;99.90
37460;DHT22;23318;50.966;5.284;2023-06-10T05:46:50;22.00;99.90
37460;DHT22;23318;50.966;5.284;2023-06-10T05:49:16;22.00;99.90
37460;DHT22;23318;50.966;5.284;2023-06-10T05:51:42;22.10;99.90
37460;DHT22;23318;50.966;5.284;2023-06-10T05:54:07;22.10;99.90
37460;DHT22;23318;50.966;5.284;2023-06-10T05:56:33;22.30;99.90
37460;DHT22;23318;50.966;5.284;2023-06-10T05:58:59;22.40;99.90
37460;DHT22;23318;50.966;5.284;2023-06-10T06:01:25;22.50;99.90
37460;DHT22;23318;50.966;5.284;2023-06-10T06:03:50;22.50;99.90
37460;DHT22;23318;50.966;5.284;2023-06-10T06:06:16;22.60;99.90
37460;DHT22;23318;50.966;5.284;2023-06-10T06:08:42;22.70;99.90
37460;DHT22;23318;50.966;5.284;2023-06-10T06:11:07;22.70;99.90
37460;DHT22;23318;50.966;5.284;2023-06-10T06:13:33;22.70;99.90
37460;DHT22;23318;50.966;5.284;2023-06-10T06:15:59;22.90;99.90
37460;DHT22;23318;50.966;5.284;2023-06-10T06:18:24;23.10;99.90
37460;DHT22;23318;50.966;5.284;2023-06-10T06:20:50;23.20;99.90
37460;DHT22;23318;50.966;5.284;2023-06-10T06:23:16;23.10;99.90
37460;DHT22;23318;50.966;5.284;2023-06-10T06:25:41;23.00;99.90
37460;DHT22;23318;50.966;5.284;2023-06-10T06:28:07;23.10;99.90
37460;DHT22;23318;50.966;5.284;2023-06-10T06:30:36;23.30;99.90
37460;DHT22;23318;50.966;5.284;2023-06-10T06:33:02;23.40;99.90
37460;DHT22;23318;50.966;5.284;2023-06-10T06:35:30;23.50;99.90
37460;DHT22;23318;50.966;5.284;2023-06-10T06:37:55;23.60;99.90
37460;DHT22;23318;50.966;5.284;2023-06-10T06:40:22;23.60;99.90
37460;DHT22;23318;50.966;5.284;2023-06-10T06:42:47;23.80;99.70
37460;DHT22;23318;50.966;5.284;2023-06-10T06:45:13;23.70;99.50
37460;DHT22;23318;50.966;5.284;2023-06-10T06:47:39;23.80;99.20
37460;DHT22;23318;50.966;5.284;2023-06-10T06:50:05;23.80;99.50
37460;DHT22;23318;50.966;5.284;2023-06-10T06:52:30;24.00;99.60
37460;DHT22;23318;50.966;5.284;2023-06-10T06:54:56;24.20;98.40
37460;DHT22;23318;50.966;5.284;2023-06-10T06:57:21;24.10;99.00
37460;DHT22;23318;50.966;5.284;2023-06-10T06:59:48;24.30;98.90
37460;DHT22;23318;50.966;5.284;2023-06-10T07:02:14;24.20;98.50
37460;DHT22;23318;50.966;5.284;2023-06-10T07:04:40;24.20;98.40
37460;DHT22;23318;50.966;5.284;2023-06-10T07:07:07;24.30;98.40
37460;DHT22;23318;50.966;5.284;2023-06-10T07:09:34;24.30;98.80
37460;DHT22;23318;50.966;5.284;2023-06-10T07:11:59;24.40;98.90
37460;DHT22;23318;50.966;5.284;2023-06-10T07:14:25;24.50;98.50
37460;DHT22;23318;50.966;5.284;2023-06-10T07:16:51;24.70;98.20
37460;DHT22;23318;50.966;5.284;2023-06-10T07:19:17;24.90;97.90
37460;DHT22;23318;50.966;5.284;2023-06-10T07:21:42;25.00;97.50
37460;DHT22;23318;50.966;5.284;2023-06-10T07:24:08;25.10;97.80
37460;DHT22;23318;50.966;5.284;2023-06-10T07:26:34;25.10;97.20
37460;DHT22;23318;50.966;5.284;2023-06-10T07:29:00;25.10;97.30
37460;DHT22;23318;50.966;5.284;2023-06-10T07:31:25;25.20;97.70
37460;DHT22;23318;50.966;5.284;2023-06-10T07:33:51;25.30;97.30
37460;DHT22;23318;50.966;5.284;2023-06-10T07:36:16;25.50;97.10
37460;DHT22;23318;50.966;5.284;2023-06-10T07:38:42;25.70;96.80
37460;DHT22;23318;50.966;5.284;2023-06-10T07:41:08;25.80;96.70
37460;DHT22;23318;50.966;5.284;2023-06-10T07:43:34;25.60;96.50
37460;DHT22;23318;50.966;5.284;2023-06-10T07:46:00;25.50;96.70
37460;DHT22;23318;50.966;5.284;2023-06-10T07:48:25;25.70;96.70
37460;DHT22;23318;50.966;5.284;2023-06-10T07:50:52;25.90;96.70
37460;DHT22;23318;50.966;5.284;2023-06-10T07:53:18;26.20;96.60
37460;DHT22;23318;50.966;5.284;2023-06-10T07:55:43;26.40;96.10
37460;DHT22;23318;50.966;5.284;2023-06-10T07:58:09;26.70;95.80
37460;DHT22;23318;50.966;5.284;2023-06-10T08:00:35;26.80;95.60
37460;DHT22;23318;50.966;5.284;2023-06-10T08:03:01;26.80;95.30
37460;DHT22;23318;50.966;5.284;2023-06-10T08:05:26;26.80;95.70
37460;DHT22;23318;50.966;5.284;2023-06-10T08:07:52;26.90;95.50
37460;DHT22;23318;50.966;5.284;2023-06-10T08:10:18;26.90;95.10
37460;DHT22;23318;50.966;5.284;2023-06-10T08:12:44;26.80;95.00
37460;DHT22;23318;50.966;5.284;2023-06-10T08:15:10;26.70;95.50
37460;DHT22;23318;50.966;5.284;2023-06-10T08:17:36;26.80;95.20
37460;DHT22;23318;50.966;5.284;2023-06-10T08:20:02;27.00;95.60
37460;DHT22;23318;50.966;5.284;2023-06-10T08:22:28;27.10;94.80
37460;DHT22;23318;50.966;5.284;2023-06-10T08:24:54;27.00;94.80
37460;DHT22;23318;50.966;5.284;2023-06-10T08:27:21;27.20;95.10
37460;DHT22;23318;50.966;5.284;2023-06-10T08:29:47;27.50;95.20
37460;DHT22;23318;50.966;5.284;2023-06-10T08:32:12;27.60;94.30
37460;DHT22;23318;50.966;5.284;2023-06-10T08:34:39;27.50;94.40
37460;DHT22;23318;50.966;5.284;2023-06-10T08:37:05;27.30;94.40
37460;DHT22;23318;50.966;5.284;2023-06-10T08:39:30;27.40;94.90
37460;DHT22;23318;50.966;5.284;2023-06-10T08:42:09;27.60;94.40
37460;DHT22;23318;50.966;5.284;2023-06-10T08:44:36;27.70;94.20
37460;DHT22;23318;50.966;5.284;2023-06-10T08:47:16;27.80;94.10
37460;DHT22;23318;50.966;5.284;2023-06-10T08:49:44;28.00;94.40
37460;DHT22;23318;50.966;5.284;2023-06-10T08:52:17;28.30;93.80
37460;DHT22;23318;50.966;5.284;2023-06-10T08:54:59;28.30;93.80
37460;DHT22;23318;50.966;5.284;2023-06-10T08:57:26;28.10;93.40
37460;DHT22;23318;50.966;5.284;2023-06-10T08:59:56;28.10;93.50
37460;DHT22;23318;50.966;5.284;2023-06-10T09:02:23;28.20;93.60
37460;DHT22;23318;50.966;5.284;2023-06-10T09:04:50;28.10;93.60
37460;DHT22;23318;50.966;5.284;2023-06-10T09:07:16;28.40;93.70
37460;DHT22;23318;50.966;5.284;2023-06-10T09:09:43;28.60;93.30
37460;DHT22;23318;50.966;5.284;2023-06-10T09:12:10;28.60;93.00
37460;DHT22;23318;50.966;5.284;2023-06-10T09:14:37;28.70;93.10
37460;DHT22;23318;50.966;5.284;2023-06-10T09:17:03;28.70;92.80
37460;DHT22;23318;50.966;5.284;2023-06-10T09:19:30;28.90;92.50
37460;DHT22;23318;50.966;5.284;2023-06-10T09:21:56;29.10;92.80
37460;DHT22;23318;50.966;5.284;2023-06-10T09:24:25;29.40;92.50
37460;DHT22;23318;50.966;5.284;2023-06-10T09:27:10;29.50;93.00
37460;DHT22;23318;50.966;5.284;2023-06-10T09:29:55;29.60;91.70
37460;DHT22;23318;50.966;5.284;2023-06-10T09:32:21;29.70;92.00
37460;DHT22;23318;50.966;5.284;2023-06-10T09:34:47;30.00;91.90
37460;DHT22;23318;50.966;5.284;2023-06-10T09:37:19;29.90;91.20
37460;DHT22;23318;50.966;5.284;2023-06-10T09:39:45;30.00;91.20
37460;DHT22;23318;50.966;5.284;2023-06-10T09:42:25;30.00;91.30
37460;DHT22;23318;50.966;5.284;2023-06-10T09:44:52;29.60;91.30
37460;DHT22;23318;50.966;5.284;2023-06-10T09:47:21;29.50;90.90
37460;DHT22;23318;50.966;5.284;2023-06-10T09:49:48;29.70;91.00
37460;DHT22;23318;50.966;5.284;2023-06-10T09:52:24;29.80;90.60
37460;DHT22;23318;50.966;5.284;2023-06-10T09:55:00;29.80;90.40
37460;DHT22;23318;50.966;5.284;2023-06-10T09:57:31;29.90;90.40
37460;DHT22;23318;50.966;5.284;2023-06-10T09:59:58;30.00;90.70
37460;DHT22;23318;50.966;5.284;2023-06-10T10:02:23;29.90;89.80
37460;DHT22;23318;50.966;5.284;2023-06-10T10:04:49;30.10;90.10
37460;DHT22;23318;50.966;5.284;2023-06-10T10:07:15;30.40;90.20
37460;DHT22;23318;50.966;5.284;2023-06-10T10:09:42;30.60;90.00
37460;DHT22;23318;50.966;5.284;2023-06-10T10:12:12;30.70;89.10
37460;DHT22;23318;50.966;5.284;2023-06-10T10:14:39;30.60;88.40
37460;DHT22;23318;50.966;5.284;2023-06-10T10:17:09;30.50;89.30
37460;DHT22;23318;50.966;5.284;2023-06-10T10:19:43;30.60;88.00
37460;DHT22;23318;50.966;5.284;2023-06-10T10:22:18;30.70;86.30
37460;DHT22;23318;50.966;5.284;2023-06-10T10:24:53;30.70;86.00
37460;DHT22;23318;50.966;5.284;2023-06-10T10:27:28;30.70;86.10
37460;DHT22;23318;50.966;5.284;2023-06-10T10:29:54;30.40;84.20
37460;DHT22;23318;50.966;5.284;2023-06-10T10:32:33;30.50;84.40
37460;DHT22;23318;50.966;5.284;2023-06-10T10:35:14;30.70;83.90
37460;DHT22;23318;50.966;5.284;2023-06-10T10:37:41;30.80;82.90
37460;DHT22;23318;50.966;5.284;2023-06-10T10:40:08;31.10;83.50
37460;DHT22;23318;50.966;5.284;2023-06-10T10:42:35;31.30;83.70
37460;DHT22;23318;50.966;5.284;2023-06-10T10:45:02;31.60;83.50
37460;DHT22;23318;50.966;5.284;2023-06-10T10:47:30;31.90;84.40
37460;DHT22;23318;50.966;5.284;2023-06-10T10:49:56;32.20;82.70
37460;DHT22;23318;50.966;5.284;2023-06-10T10:52:28;31.90;80.70
37460;DHT22;23318;50.966;5.284;2023-06-10T10:55:12;32.40;79.70
37460;DHT22;23318;50.966;5.284;2023-06-10T10:57:38;33.70;78.50
37460;DHT22;23318;50.966;5.284;2023-06-10T11:00:05;34.60;76.10
37460;DHT22;23318;50.966;5.284;2023-06-10T11:02:41;34.80;74.20
37460;DHT22;23318;50.966;5.284;2023-06-10T11:05:15;35.80;72.30
37460;DHT22;23318;50.966;5.284;2023-06-10T11:07:52;35.50;71.00
37460;DHT22;23318;50.966;5.284;2023-06-10T11:10:29;35.50;70.00
37460;DHT22;23318;50.966;5.284;2023-06-10T11:12:55;35.70;68.80
37460;DHT22;23318;50.966;5.284;2023-06-10T11:15:27;36.20;68.60
37460;DHT22;23318;50.966;5.284;2023-06-10T11:18:11;37.10;68.00
37460;DHT22;23318;50.966;5.284;2023-06-10T11:28:37;36.50;63.40
37460;DHT22;23318;50.966;5.284;2023-06-10T11:31:03;36.10;62.50
37460;DHT22;23318;50.966;5.284;2023-06-10T11:33:29;35.50;62.10
37460;DHT22;23318;50.966;5.284;2023-06-10T11:35:55;35.50;63.40
37460;DHT22;23318;50.966;5.284;2023-06-10T11:38:21;36.10;63.20
37460;DHT22;23318;50.966;5.284;2023-06-10T11:40:50;37.70;64.20
37460;DHT22;23318;50.966;5.284;2023-06-10T11:43:19;38.40;61.90
37460;DHT22;23318;50.966;5.284;2023-06-10T11:45:45;38.20;61.80
37460;DHT22;23318;50.966;5.284;2023-06-10T11:48:12;37.40;62.00
37460;DHT22;23318;50.966;5.284;2023-06-10T11:50:40;37.40;59.00
37460;DHT22;23318;50.966;5.284;2023-06-10T11:53:08;37.80;59.30
37460;DHT22;23318;50.966;5.284;2023-06-10T11:55:44;37.80;59.10
37460;DHT22;23318;50.966;5.284;2023-06-10T12:00:46;38.50;58.10
37460;DHT22;23318;50.966;5.284;2023-06-10T12:03:12;37.50;56.70
37460;DHT22;23318;50.966;5.284;2023-06-10T12:05:38;37.50;56.90
37460;DHT22;23318;50.966;5.284;2023-06-10T12:08:11;38.10;56.10
37460;DHT22;23318;50.966;5.284;2023-06-10T12:10:43;38.80;56.30
37460;DHT22;23318;50.966;5.284;2023-06-10T12:13:09;37.40;54.00
37460;DHT22;23318;50.966;5.284;2023-06-10T12:15:35;38.30;54.50
37460;DHT22;23318;50.966;5.284;2023-06-10T12:18:01;38.10;55.10
37460;DHT22;23318;50.966;5.284;2023-06-10T12:20:32;36.60;55.50
37460;DHT22;23318;50.966;5.284;2023-06-10T12:22:59;36.20;56.40
37460;DHT22;23318;50.966;5.284;2023-06-10T12:25:27;36.50;55.70
37460;DHT22;23318;50.966;5.284;2023-06-10T12:27:54;39.00;55.00
37460;DHT22;23318;50.966;5.284;2023-06-10T12:30:24;40.40;54.10
37460;DHT22;23318;50.966;5.284;2023-06-10T12:32:51;41.80;52.60
37460;DHT22;23318;50.966;5.284;2023-06-10T12:35:25;40.40;50.70
37460;DHT22;23318;50.966;5.284;2023-06-10T12:38:02;40.00;51.10
37460;DHT22;23318;50.966;5.284;2023-06-10T12:40:30;39.90;50.10
37460;DHT22;23318;50.966;5.284;2023-06-10T12:42:57;40.90;51.00
37460;DHT22;23318;50.966;5.284;2023-06-10T12:45:33;39.30;49.20
37460;DHT22;23318;50.966;5.284;2023-06-10T12:50:43;39.50;50.90
37460;DHT22;23318;50.966;5.284;2023-06-10T12:53:10;40.70;49.70
37460;DHT22;23318;50.966;5.284;2023-06-10T12:55:39;40.50;49.40
37460;DHT22;23318;50.966;5.284;2023-06-10T12:58:05;40.20;48.40
37460;DHT22;23318;50.966;5.284;2023-06-10T13:00:30;39.30;48.60
37460;DHT22;23318;50.966;5.284;2023-06-10T13:02:57;38.80;48.80
37460;DHT22;23318;50.966;5.284;2023-06-10T13:05:23;38.60;49.40
37460;DHT22;23318;50.966;5.284;2023-06-10T13:07:49;39.50;47.40
37460;DHT22;23318;50.966;5.284;2023-06-10T13:10:16;40.00;47.00
37460;DHT22;23318;50.966;5.284;2023-06-10T13:12:42;40.00;47.10
37460;DHT22;23318;50.966;5.284;2023-06-10T13:15:09;41.70;47.20
37460;DHT22;23318;50.966;5.284;2023-06-10T13:17:34;42.30;46.00
37460;DHT22;23318;50.966;5.284;2023-06-10T13:20:05;41.80;45.60
37460;DHT22;23318;50.966;5.284;2023-06-10T13:22:32;40.50;46.60
37460;DHT22;23318;50.966;5.284;2023-06-10T13:25:05;40.10;46.40
37460;DHT22;23318;50.966;5.284;2023-06-10T13:27:32;40.20;46.50
37460;DHT22;23318;50.966;5.284;2023-06-10T13:29:58;40.40;45.90
37460;DHT22;23318;50.966;5.284;2023-06-10T13:32:23;39.60;46.40
37460;DHT22;23318;50.966;5.284;2023-06-10T13:34:49;40.90;45.90
37460;DHT22;23318;50.966;5.284;2023-06-10T13:37:15;41.80;45.60
37460;DHT22;23318;50.966;5.284;2023-06-10T13:39:44;42.80;45.30
37460;DHT22;23318;50.966;5.284;2023-06-10T13:42:12;43.30;44.40
37460;DHT22;23318;50.966;5.284;2023-06-10T13:44:38;42.90;44.40
37460;DHT22;23318;50.966;5.284;2023-06-10T13:47:04;41.80;44.50
37460;DHT22;23318;50.966;5.284;2023-06-10T13:49:30;41.70;45.20
37460;DHT22;23318;50.966;5.284;2023-06-10T13:51:56;40.30;45.60
37460;DHT22;23318;50.966;5.284;2023-06-10T13:54:22;41.10;45.70
37460;DHT22;23318;50.966;5.284;2023-06-10T13:56:48;40.30;45.70
37460;DHT22;23318;50.966;5.284;2023-06-10T13:59:13;40.80;45.80
37460;DHT22;23318;50.966;5.284;2023-06-10T14:01:39;41.20;44.10
37460;DHT22;23318;50.966;5.284;2023-06-10T14:04:06;41.50;43.90
37460;DHT22;23318;50.966;5.284;2023-06-10T14:06:32;41.60;44.10
37460;DHT22;23318;50.966;5.284;2023-06-10T14:09:02;41.70;45.10
37460;DHT22;23318;50.966;5.284;2023-06-10T14:11:28;42.60;45.10
37460;DHT22;23318;50.966;5.284;2023-06-10T14:13:53;43.10;44.20
37460;DHT22;23318;50.966;5.284;2023-06-10T14:16:22;42.00;42.30
37460;DHT22;23318;50.966;5.284;2023-06-10T14:18:47;41.40;42.90
37460;DHT22;23318;50.966;5.284;2023-06-10T14:21:13;41.80;43.20
37460;DHT22;23318;50.966;5.284;2023-06-10T14:23:39;42.20;43.80
37460;DHT22;23318;50.966;5.284;2023-06-10T14:26:04;40.30;44.20
37460;DHT22;23318;50.966;5.284;2023-06-10T14:28:32;41.00;45.00
37460;DHT22;23318;50.966;5.284;2023-06-10T14:30:58;40.00;43.80
37460;DHT22;23318;50.966;5.284;2023-06-10T14:33:23;37.60;44.40
37460;DHT22;23318;50.966;5.284;2023-06-10T14:35:49;38.60;44.70
37460;DHT22;23318;50.966;5.284;2023-06-10T14:38:15;39.50;43.60
37460;DHT22;23318;50.966;5.284;2023-06-10T14:40:41;39.10;44.10
37460;DHT22;23318;50.966;5.284;2023-06-10T14:43:06;40.30;44.00
37460;DHT22;23318;50.966;5.284;2023-06-10T14:45:39;41.00;44.20
37460;DHT22;23318;50.966;5.284;2023-06-10T14:48:06;41.60;43.30
37460;DHT22;23318;50.966;5.284;2023-06-10T14:50:34;42.40;43.20
37460;DHT22;23318;50.966;5.284;2023-06-10T14:53:00;43.60;42.80
37460;DHT22;23318;50.966;5.284;2023-06-10T14:55:26;41.20;42.80
37460;DHT22;23318;50.966;5.284;2023-06-10T14:57:52;40.70;42.10
37460;DHT22;23318;50.966;5.284;2023-06-10T15:00:18;41.50;42.40
37460;DHT22;23318;50.966;5.284;2023-06-10T15:02:48;42.50;42.20
37460;DHT22;23318;50.966;5.284;2023-06-10T15:05:14;43.20;41.60
37460;DHT22;23318;50.966;5.284;2023-06-10T15:07:41;42.90;42.30
37460;DHT22;23318;50.966;5.284;2023-06-10T15:10:07;43.90;42.40
37460;DHT22;23318;50.966;5.284;2023-06-10T15:12:33;44.60;42.10
37460;DHT22;23318;50.966;5.284;2023-06-10T15:14:59;43.50;41.00
37460;DHT22;23318;50.966;5.284;2023-06-10T15:17:25;42.60;42.50
37460;DHT22;23318;50.966;5.284;2023-06-10T15:19:50;43.00;43.00
37460;DHT22;23318;50.966;5.284;2023-06-10T15:22:16;42.80;42.70
37460;DHT22;23318;50.966;5.284;2023-06-10T15:24:42;43.00;43.00
37460;DHT22;23318;50.966;5.284;2023-06-10T15:27:08;43.20;43.90
37460;DHT22;23318;50.966;5.284;2023-06-10T15:29:33;40.80;45.00
37460;DHT22;23318;50.966;5.284;2023-06-10T15:31:59;38.70;46.10
37460;DHT22;23318;50.966;5.284;2023-06-10T15:34:25;39.50;45.50
37460;DHT22;23318;50.966;5.284;2023-06-10T15:36:50;40.10;45.30
37460;DHT22;23318;50.966;5.284;2023-06-10T15:39:16;41.20;45.60
37460;DHT22;23318;50.966;5.284;2023-06-10T15:41:42;40.00;44.50
37460;DHT22;23318;50.966;5.284;2023-06-10T15:44:07;39.30;45.20